createdAt,value
2018-12-15T00:01:02.321Z,-1.63
2018-12-15T00:03:38.096Z,-1.71
2018-12-15T00:06:13.849Z,-1.70
2018-12-15T00:08:49.734Z,-1.70
2018-12-15T00:11:25.416Z,-1.68
2018-12-15T00:14:01.340Z,-1.70
2018-12-15T00:16:37.035Z,-1.72
2018-12-15T00:19:12.836Z,-1.68
2018-12-15T00:21:48.503Z,-1.74
2018-12-15T00:24:24.191Z,-1.76
2018-12-15T00:29:44.233Z,-1.71
2018-12-15T00:32:19.931Z,-1.66
2018-12-15T00:34:55.590Z,-1.66
2018-12-15T00:37:31.550Z,-1.68
2018-12-15T00:40:08.338Z,-1.70
2018-12-15T00:42:44.151Z,-1.71
2018-12-15T00:45:19.928Z,-1.74
2018-12-15T00:47:55.725Z,-1.74
2018-12-15T00:50:31.542Z,-1.79
2018-12-15T00:53:07.269Z,-1.76
2018-12-15T00:55:42.912Z,-1.76
2018-12-15T00:58:18.996Z,-1.74
2018-12-15T01:00:54.669Z,-1.79
2018-12-15T01:03:30.308Z,-1.85
2018-12-15T01:06:06.179Z,-1.85
2018-12-15T01:08:42.034Z,-1.86
2018-12-15T01:11:17.844Z,-1.89
2018-12-15T01:13:53.629Z,-1.85
2018-12-15T01:16:30.252Z,-1.83
2018-12-15T01:19:05.941Z,-1.90
2018-12-15T01:21:41.611Z,-1.84
2018-12-15T01:24:17.289Z,-1.87
2018-12-15T01:26:53.075Z,-1.91
2018-12-15T01:29:28.700Z,-1.96
2018-12-15T01:32:04.684Z,-1.88
2018-12-15T01:34:40.470Z,-1.95
2018-12-15T01:37:16.184Z,-2.00
2018-12-15T01:39:51.869Z,-1.95
2018-12-15T01:42:27.904Z,-1.93
2018-12-15T01:45:03.862Z,-1.97
2018-12-15T01:47:40.254Z,-2.05
2018-12-15T01:50:16.100Z,-2.06
2018-12-15T01:52:51.711Z,-2.01
2018-12-15T01:55:28.050Z,-1.96
2018-12-15T01:58:03.911Z,-1.97
2018-12-15T02:00:39.765Z,-1.89
2018-12-15T02:03:15.679Z,-1.90
2018-12-15T02:05:51.461Z,-1.88
2018-12-15T02:08:27.243Z,-1.88
2018-12-15T02:11:03.098Z,-1.88
2018-12-15T02:13:38.891Z,-1.90
2018-12-15T02:16:16.434Z,-1.85
2018-12-15T02:18:53.313Z,-1.88
2018-12-15T02:21:29.014Z,-1.89
2018-12-15T02:24:04.739Z,-1.88
2018-12-15T02:26:40.393Z,-1.88
2018-12-15T02:29:16.788Z,-1.86
2018-12-15T02:31:52.411Z,-1.92
2018-12-15T02:34:28.188Z,-1.94
2018-12-15T02:37:03.913Z,-1.90
2018-12-15T02:39:39.644Z,-1.91
2018-12-15T02:42:16.311Z,-1.93
2018-12-15T02:44:52.039Z,-1.91
2018-12-15T02:47:27.814Z,-1.92
2018-12-15T02:50:03.509Z,-1.91
2018-12-15T02:52:39.605Z,-2.03
2018-12-15T02:55:15.387Z,-2.04
2018-12-15T02:57:51.028Z,-2.00
2018-12-15T03:00:26.921Z,-2.01
2018-12-15T03:03:02.653Z,-2.02
2018-12-15T03:05:38.526Z,-1.94
2018-12-15T03:08:14.312Z,-2.08
2018-12-15T03:10:49.991Z,-2.02
2018-12-15T03:13:26.734Z,-2.08
2018-12-15T03:16:02.420Z,-2.20
2018-12-15T03:18:38.138Z,-2.14
2018-12-15T03:21:13.779Z,-2.17
2018-12-15T03:23:49.514Z,-2.12
2018-12-15T03:26:25.167Z,-2.10
2018-12-15T03:29:00.937Z,-2.05
2018-12-15T03:31:36.569Z,-2.13
2018-12-15T03:34:13.383Z,-2.10
2018-12-15T03:36:49.351Z,-2.13
2018-12-15T03:39:25.246Z,-2.07
2018-12-15T03:42:01.368Z,-2.07
2018-12-15T03:44:37.701Z,-2.06
2018-12-15T03:47:13.476Z,-2.04
2018-12-15T03:49:49.119Z,-2.06
2018-12-15T03:52:24.934Z,-2.12
2018-12-15T03:55:00.591Z,-2.18
2018-12-15T03:57:36.316Z,-2.26
2018-12-15T04:00:12.243Z,-2.21
2018-12-15T04:02:48.007Z,-2.16
2018-12-15T04:05:23.741Z,-2.21
2018-12-15T04:07:59.531Z,-2.19
2018-12-15T04:10:35.718Z,-2.25
2018-12-15T04:13:11.396Z,-2.18
2018-12-15T04:15:47.098Z,-2.22
2018-12-15T04:18:22.746Z,-2.16
2018-12-15T04:20:58.454Z,-2.24
2018-12-15T04:23:34.069Z,-2.25
2018-12-15T04:26:09.881Z,-2.22
2018-12-15T04:28:45.726Z,-2.26
2018-12-15T04:31:21.515Z,-2.29
2018-12-15T04:33:57.242Z,-2.31
2018-12-15T04:36:32.892Z,-2.36
2018-12-15T04:39:08.544Z,-2.38
2018-12-15T04:41:44.262Z,-2.28
2018-12-15T04:44:19.988Z,-2.32
2018-12-15T04:46:56.197Z,-2.28
2018-12-15T04:49:31.933Z,-2.28
2018-12-15T04:52:08.702Z,-2.36
2018-12-15T04:54:44.397Z,-2.35
2018-12-15T04:57:20.038Z,-2.38
2018-12-15T04:59:55.753Z,-2.35
2018-12-15T05:02:32.453Z,-2.37
2018-12-15T05:05:08.590Z,-2.33
2018-12-15T05:07:44.361Z,-2.31
2018-12-15T05:10:20.249Z,-2.37
2018-12-15T05:12:55.969Z,-2.34
2018-12-15T05:15:31.717Z,-2.28
2018-12-15T05:18:07.578Z,-2.33
2018-12-15T05:20:44.296Z,-2.33
2018-12-15T05:23:19.892Z,-2.28
2018-12-15T05:25:55.581Z,-2.33
2018-12-15T05:28:31.231Z,-2.35
2018-12-15T05:31:07.070Z,-2.26
2018-12-15T05:33:42.768Z,-2.28
2018-12-15T05:36:18.586Z,-2.23
2018-12-15T05:38:54.493Z,-2.25
2018-12-15T05:41:32.124Z,-2.28
2018-12-15T05:44:07.833Z,-2.30
2018-12-15T05:46:43.500Z,-2.22
2018-12-15T05:49:19.192Z,-2.26
2018-12-15T05:51:54.941Z,-2.20
2018-12-15T05:54:30.630Z,-2.18
2018-12-15T05:57:06.644Z,-2.14
2018-12-15T05:59:42.364Z,-2.25
2018-12-15T06:02:19.459Z,-2.26
2018-12-15T06:04:56.569Z,-2.22
2018-12-15T06:07:32.202Z,-2.16
2018-12-15T06:10:08.205Z,-2.14
2018-12-15T06:12:44.032Z,-2.13
2018-12-15T06:15:19.771Z,-2.20
2018-12-15T06:17:55.574Z,-2.25
2018-12-15T06:20:31.329Z,-2.19
2018-12-15T06:23:07.005Z,-2.11
2018-12-15T06:25:42.763Z,-2.07
2018-12-15T06:28:18.473Z,-2.13
2018-12-15T06:30:54.302Z,-2.14
2018-12-15T06:33:29.973Z,-2.18
2018-12-15T06:36:05.854Z,-2.07
2018-12-15T06:38:41.854Z,-2.11
2018-12-15T06:41:17.648Z,-2.15
2018-12-15T06:43:53.802Z,-2.11
2018-12-15T06:46:29.628Z,-2.07
2018-12-15T06:49:05.312Z,-2.14
2018-12-15T06:51:41.128Z,-2.07
2018-12-15T06:54:16.993Z,-2.07
2018-12-15T06:56:52.624Z,-2.05
2018-12-15T06:59:28.302Z,-2.04
2018-12-15T07:02:04.125Z,-2.06
2018-12-15T07:04:39.792Z,-2.07
2018-12-15T07:07:15.569Z,-2.02
2018-12-15T07:09:51.244Z,-2.02
2018-12-15T07:12:27.233Z,-2.05
2018-12-15T07:15:02.928Z,-1.99
2018-12-15T07:17:38.607Z,-2.06
2018-12-15T07:20:14.706Z,-1.97
2018-12-15T07:22:50.304Z,-1.98
2018-12-15T07:25:26.509Z,-1.92
2018-12-15T07:28:02.213Z,-1.88
2018-12-15T07:30:39.456Z,-1.84
2018-12-15T07:33:15.205Z,-1.92
2018-12-15T07:35:51.061Z,-1.87
2018-12-15T07:38:26.831Z,-1.81
2018-12-15T07:41:02.525Z,-1.75
2018-12-15T07:43:38.199Z,-1.67
2018-12-15T07:46:14.119Z,-1.72
2018-12-15T07:48:51.555Z,-1.74
2018-12-15T07:51:27.840Z,-1.75
2018-12-15T07:54:03.760Z,-1.64
2018-12-15T07:56:39.533Z,-1.65
2018-12-15T07:59:15.411Z,-1.48
2018-12-15T08:01:51.144Z,-1.45
2018-12-15T08:04:26.872Z,-1.38
2018-12-15T08:07:02.661Z,-1.38
2018-12-15T08:09:38.660Z,-1.44
2018-12-15T08:12:19.778Z,-1.27
2018-12-15T08:14:55.665Z,-1.28
2018-12-15T08:17:31.496Z,-1.26
2018-12-15T08:20:11.016Z,-1.15
2018-12-15T08:22:48.639Z,-0.99
2018-12-15T08:25:24.374Z,-0.97
2018-12-15T08:28:00.435Z,-0.97
2018-12-15T08:30:36.187Z,-0.87
2018-12-15T08:33:12.142Z,-0.90
2018-12-15T08:35:47.868Z,-1.00
2018-12-15T08:38:23.618Z,-0.96
2018-12-15T08:40:59.378Z,-1.06
2018-12-15T08:43:35.105Z,-1.05
2018-12-15T08:46:15.393Z,-0.99
2018-12-15T08:48:51.101Z,-0.92
2018-12-15T08:51:27.213Z,-0.67
2018-12-15T08:54:02.991Z,-0.65
2018-12-15T08:56:38.875Z,-0.73
2018-12-15T08:59:14.944Z,-0.56
2018-12-15T09:01:50.559Z,-0.87
2018-12-15T09:04:26.678Z,-0.67
2018-12-15T09:07:02.297Z,-0.71
2018-12-15T09:09:38.020Z,-0.44
2018-12-15T09:12:13.926Z,-1.11
2018-12-15T09:14:49.956Z,-0.80
2018-12-15T09:17:25.863Z,-0.97
2018-12-15T09:20:01.726Z,-0.74
2018-12-15T09:22:37.922Z,-0.88
2018-12-15T09:25:14.866Z,-0.50
2018-12-15T09:27:50.891Z,-0.54
2018-12-15T09:30:26.817Z,-0.50
2018-12-15T09:33:02.564Z,-0.55
2018-12-15T09:35:38.429Z,-0.23
2018-12-15T09:38:14.404Z,-0.07
2018-12-15T09:40:50.088Z,-0.04
2018-12-15T09:43:26.393Z,0.14
2018-12-15T09:46:02.161Z,0.07
2018-12-15T09:48:37.957Z,-0.10
2018-12-15T09:51:13.823Z,-0.08
2018-12-15T09:53:50.839Z,0.06
2018-12-15T09:56:26.565Z,0.17
2018-12-15T09:59:02.540Z,0.02
2018-12-15T10:01:39.308Z,0.18
2018-12-15T10:04:15.292Z,0.43
2018-12-15T10:06:51.144Z,-0.11
2018-12-15T10:09:27.031Z,0.32
2018-12-15T10:12:02.824Z,0.34
2018-12-15T10:14:38.613Z,0.21
2018-12-15T10:17:14.387Z,0.32
2018-12-15T10:19:50.060Z,0.36
2018-12-15T10:25:09.631Z,0.49
2018-12-15T10:27:45.394Z,0.61
2018-12-15T10:30:26.516Z,0.61
2018-12-15T10:33:02.305Z,0.71
2018-12-15T10:35:38.053Z,0.55
2018-12-15T10:38:14.037Z,0.41
2018-12-15T10:40:49.800Z,0.44
2018-12-15T10:43:25.548Z,0.84
2018-12-15T10:46:01.308Z,0.81
2018-12-15T10:48:37.223Z,0.97
2018-12-15T10:51:12.960Z,0.84
2018-12-15T10:53:48.818Z,0.46
2018-12-15T10:56:24.546Z,0.34
2018-12-15T10:59:00.262Z,0.80
2018-12-15T11:01:35.946Z,1.39
2018-12-15T11:04:11.614Z,1.96
2018-12-15T11:06:47.368Z,1.84
2018-12-15T11:09:23.355Z,0.98
2018-12-15T11:11:59.011Z,1.16
2018-12-15T11:14:34.821Z,1.29
2018-12-15T11:17:10.428Z,1.30
2018-12-15T11:19:46.052Z,1.16
2018-12-15T11:22:22.015Z,1.10
2018-12-15T11:24:58.449Z,1.51
2018-12-15T11:27:34.072Z,2.03
2018-12-15T11:30:10.661Z,2.65
2018-12-15T11:32:46.353Z,3.74
2018-12-15T11:35:22.038Z,4.96
2018-12-15T11:37:57.765Z,6.10
2018-12-15T11:40:33.397Z,6.94
2018-12-15T11:43:09.159Z,5.43
2018-12-15T11:45:44.839Z,5.64
2018-12-15T11:48:20.563Z,6.63
2018-12-15T11:50:56.199Z,7.18
2018-12-15T11:53:31.983Z,5.89
2018-12-15T11:56:07.789Z,5.73
2018-12-15T11:58:43.613Z,5.33
2018-12-15T12:01:19.319Z,6.14
2018-12-15T12:03:55.017Z,4.34
2018-12-15T12:06:30.774Z,2.79
2018-12-15T12:09:08.063Z,2.64
2018-12-15T12:11:43.806Z,1.93
2018-12-15T12:14:19.386Z,2.02
2018-12-15T12:16:55.137Z,1.80
2018-12-15T12:19:30.866Z,1.43
2018-12-15T12:22:06.567Z,0.70
2018-12-15T12:24:42.259Z,0.75
2018-12-15T12:27:17.888Z,1.05
2018-12-15T12:29:53.534Z,0.95
2018-12-15T12:32:29.254Z,0.66
2018-12-15T12:35:05.720Z,0.67
2018-12-15T12:37:41.432Z,1.13
2018-12-15T12:40:17.126Z,0.87
2018-12-15T12:42:52.775Z,0.57
2018-12-15T12:45:28.413Z,0.42
2018-12-15T12:48:04.691Z,0.55
2018-12-15T12:50:40.554Z,0.73
2018-12-15T12:53:16.204Z,0.88
2018-12-15T12:55:51.841Z,1.67
2018-12-15T12:58:27.682Z,2.03
2018-12-15T13:01:03.326Z,2.34
2018-12-15T13:03:39.277Z,2.29
2018-12-15T13:06:15.060Z,1.95
2018-12-15T13:08:50.656Z,1.80
2018-12-15T13:11:26.426Z,1.69
2018-12-15T13:14:02.234Z,1.42
2018-12-15T13:16:37.918Z,1.60
2018-12-15T13:19:13.568Z,1.20
2018-12-15T13:21:49.272Z,1.15
2018-12-15T13:24:25.004Z,1.09
2018-12-15T13:29:42.207Z,1.67
2018-12-15T13:32:17.931Z,1.51
2018-12-15T13:34:53.706Z,1.25
2018-12-15T13:37:29.620Z,1.21
2018-12-15T13:40:06.102Z,1.11
2018-12-15T13:42:41.755Z,0.87
2018-12-15T13:45:17.549Z,0.69
2018-12-15T13:47:53.148Z,0.73
2018-12-15T13:50:28.987Z,0.84
2018-12-15T13:53:04.691Z,0.61
2018-12-15T13:55:41.120Z,0.40
2018-12-15T13:58:16.881Z,0.40
2018-12-15T14:00:52.708Z,0.37
2018-12-15T14:03:28.263Z,0.46
2018-12-15T14:06:04.151Z,0.41
2018-12-15T14:08:40.376Z,0.60
2018-12-15T14:11:16.071Z,0.53
2018-12-15T14:13:51.882Z,0.43
2018-12-15T14:16:27.784Z,0.32
2018-12-15T14:19:04.534Z,0.20
2018-12-15T14:21:40.344Z,-0.09
2018-12-15T14:24:16.009Z,-0.45
2018-12-15T14:26:51.827Z,-0.64
2018-12-15T14:32:10.084Z,-0.54
2018-12-15T14:34:45.841Z,-0.37
2018-12-15T14:37:23.443Z,-0.48
2018-12-15T14:39:59.164Z,-0.63
2018-12-15T14:42:35.009Z,-0.57
2018-12-15T14:45:11.085Z,-0.82
2018-12-15T14:47:46.767Z,-0.91
2018-12-15T14:50:23.525Z,-0.98
2018-12-15T14:52:59.984Z,-1.04
2018-12-15T14:55:36.724Z,-1.08
2018-12-15T14:58:12.552Z,-1.03
2018-12-15T15:00:48.213Z,-1.05
2018-12-15T15:03:24.131Z,-1.20
2018-12-15T15:05:59.889Z,-1.23
2018-12-15T15:08:35.522Z,-1.25
2018-12-15T15:11:11.147Z,-1.47
2018-12-15T15:13:46.891Z,-1.53
2018-12-15T15:19:07.161Z,-1.78
2018-12-15T15:21:43.135Z,-1.73
2018-12-15T15:24:18.892Z,-1.80
2018-12-15T15:26:54.641Z,-1.95
2018-12-15T15:29:30.505Z,-2.01
2018-12-15T15:32:06.120Z,-2.09
2018-12-15T15:34:41.903Z,-2.11
2018-12-15T15:37:17.686Z,-2.11
2018-12-15T15:39:53.425Z,-2.21
2018-12-15T15:42:29.161Z,-2.34
2018-12-15T15:45:05.433Z,-2.66
2018-12-15T15:47:41.092Z,-2.73
2018-12-15T15:50:16.856Z,-2.74
2018-12-15T15:52:52.604Z,-2.86
2018-12-15T15:55:28.223Z,-2.98
2018-12-15T15:58:04.093Z,-3.12
2018-12-15T16:00:39.842Z,-3.09
2018-12-15T16:03:15.524Z,-3.06
2018-12-15T16:05:51.471Z,-3.10
2018-12-15T16:08:27.331Z,-3.21
2018-12-15T16:11:03.682Z,-3.35
2018-12-15T16:13:39.548Z,-3.46
2018-12-15T16:16:31.918Z,-3.44
2018-12-15T16:19:07.640Z,-3.47
2018-12-15T16:21:43.685Z,-3.84
2018-12-15T16:24:19.405Z,-3.91
2018-12-15T16:26:55.303Z,-4.09
2018-12-15T16:29:31.211Z,-4.14
2018-12-15T16:32:07.196Z,-4.13
2018-12-15T16:34:43.064Z,-4.22
2018-12-15T16:37:18.804Z,-4.30
2018-12-15T16:39:54.613Z,-4.29
2018-12-15T16:42:30.484Z,-4.41
2018-12-15T16:45:09.566Z,-4.41
2018-12-15T16:47:45.384Z,-4.50
2018-12-15T16:50:21.004Z,-4.61
2018-12-15T16:52:57.010Z,-4.51
2018-12-15T16:55:32.801Z,-4.61
2018-12-15T16:58:08.707Z,-4.57
2018-12-15T17:00:44.344Z,-4.59
2018-12-15T17:03:20.360Z,-4.64
2018-12-15T17:05:56.116Z,-4.55
2018-12-15T17:08:31.827Z,-4.65
2018-12-15T17:11:07.609Z,-4.72
2018-12-15T17:13:43.433Z,-4.75
2018-12-15T17:16:19.852Z,-4.74
2018-12-15T17:18:55.596Z,-4.62
2018-12-15T17:21:31.517Z,-4.57
2018-12-15T17:24:07.244Z,-4.65
2018-12-15T17:26:43.975Z,-4.65
2018-12-15T17:29:19.702Z,-4.52
2018-12-15T17:31:55.458Z,-4.69
2018-12-15T17:34:31.334Z,-4.71
2018-12-15T17:37:07.101Z,-4.67
2018-12-15T17:39:42.965Z,-4.59
2018-12-15T17:42:18.741Z,-4.59
2018-12-15T17:44:54.624Z,-4.57
2018-12-15T17:47:30.488Z,-4.51
2018-12-15T17:50:07.988Z,-4.35
2018-12-15T17:52:43.943Z,-4.26
2018-12-15T17:55:19.717Z,-4.28
2018-12-15T17:57:55.537Z,-4.31
2018-12-15T18:00:31.339Z,-4.28
2018-12-15T18:03:07.067Z,-4.32
2018-12-15T18:05:42.886Z,-4.28
2018-12-15T18:08:18.980Z,-4.33
2018-12-15T18:10:54.609Z,-4.39
2018-12-15T18:13:30.474Z,-4.46
2018-12-15T18:16:06.176Z,-4.40
2018-12-15T18:18:41.967Z,-4.33
2018-12-15T18:21:17.700Z,-4.26
2018-12-15T18:23:53.467Z,-4.30
2018-12-15T18:26:29.288Z,-4.15
2018-12-15T18:29:04.976Z,-4.08
2018-12-15T18:31:40.910Z,-4.01
2018-12-15T18:34:16.634Z,-3.91
2018-12-15T18:36:52.475Z,-3.80
2018-12-15T18:39:28.421Z,-3.71
2018-12-15T18:42:10.649Z,-3.69
2018-12-15T18:44:41.808Z,-3.67
2018-12-15T18:47:17.451Z,-3.51
2018-12-15T18:49:53.145Z,-3.56
2018-12-15T18:52:29.149Z,-3.59
2018-12-15T18:55:05.522Z,-3.58
2018-12-15T18:57:41.238Z,-3.59
2018-12-15T19:00:17.211Z,-3.54
2018-12-15T19:02:53.137Z,-3.56
2018-12-15T19:05:28.717Z,-3.62
2018-12-15T19:08:04.534Z,-3.62
2018-12-15T19:10:40.362Z,-3.54
2018-12-15T19:13:15.964Z,-3.62
2018-12-15T19:15:51.895Z,-3.72
2018-12-15T19:18:29.385Z,-3.73
2018-12-15T19:21:05.152Z,-3.62
2018-12-15T19:23:41.096Z,-3.73
2018-12-15T19:26:17.078Z,-3.74
2018-12-15T19:28:53.011Z,-3.59
2018-12-15T19:31:29.072Z,-3.59
2018-12-15T19:34:05.065Z,-3.56
2018-12-15T19:36:40.734Z,-3.55
2018-12-15T19:39:17.849Z,-3.60
2018-12-15T19:41:53.522Z,-3.54
2018-12-15T19:44:29.238Z,-3.37
2018-12-15T19:49:49.161Z,-3.29
2018-12-15T19:52:25.132Z,-3.14
2018-12-15T19:55:00.805Z,-3.08
2018-12-15T19:57:36.498Z,-3.11
2018-12-15T20:00:12.777Z,-3.04
2018-12-15T20:02:56.606Z,-3.20
2018-12-15T20:05:32.204Z,-3.21
2018-12-15T20:08:08.874Z,-3.21
2018-12-15T20:10:44.567Z,-3.18
2018-12-15T20:13:20.412Z,-3.19
2018-12-15T20:15:56.044Z,-3.07
2018-12-15T20:18:31.693Z,-3.01
2018-12-15T20:21:07.543Z,-3.03
2018-12-15T20:23:43.136Z,-2.96
2018-12-15T20:26:18.813Z,-2.91
2018-12-15T20:28:54.477Z,-2.87
2018-12-15T20:31:30.098Z,-2.85
2018-12-15T20:34:05.950Z,-2.83
2018-12-15T20:36:42.658Z,-2.79
2018-12-15T20:39:18.298Z,-2.77
2018-12-15T20:41:54.180Z,-2.71
2018-12-15T20:44:31.775Z,-2.62
2018-12-15T20:47:07.401Z,-2.54
2018-12-15T20:49:43.418Z,-2.70
2018-12-15T20:52:19.386Z,-2.68
2018-12-15T20:54:55.034Z,-2.56
2018-12-15T20:57:30.929Z,-2.51
2018-12-15T21:00:08.612Z,-2.48
2018-12-15T21:02:44.325Z,-2.43
2018-12-15T21:05:20.108Z,-2.39
2018-12-15T21:07:55.801Z,-2.46
2018-12-15T21:10:38.423Z,-2.40
2018-12-15T21:13:14.160Z,-2.25
2018-12-15T21:15:52.801Z,-2.21
2018-12-15T21:18:28.636Z,-2.17
2018-12-15T21:21:04.551Z,-2.16
2018-12-15T21:23:40.305Z,-2.14
2018-12-15T21:28:58.676Z,-2.10
2018-12-15T21:31:34.512Z,-1.99
2018-12-15T21:34:10.550Z,-1.94
2018-12-15T21:36:46.245Z,-1.90
2018-12-15T21:39:22.046Z,-1.96
2018-12-15T21:41:57.628Z,-2.03
2018-12-15T21:44:33.292Z,-2.02
2018-12-15T21:47:09.004Z,-2.04
2018-12-15T21:49:44.929Z,-2.04
2018-12-15T21:52:20.580Z,-1.99
2018-12-15T21:54:56.353Z,-1.90
2018-12-15T21:57:32.179Z,-1.86
2018-12-15T22:00:08.794Z,-1.99
2018-12-15T22:02:44.406Z,-1.96
2018-12-15T22:05:20.630Z,-1.96
2018-12-15T22:07:57.198Z,-1.93
2018-12-15T22:10:33.004Z,-1.94
2018-12-15T22:13:08.736Z,-2.08
2018-12-15T22:15:44.423Z,-1.98
2018-12-15T22:18:20.340Z,-1.86
2018-12-15T22:20:56.570Z,-1.84
2018-12-15T22:23:32.297Z,-1.95
2018-12-15T22:26:08.217Z,-1.93
2018-12-15T22:28:44.048Z,-1.90
2018-12-15T22:31:19.820Z,-1.80
2018-12-15T22:33:55.495Z,-1.85
2018-12-15T22:39:14.837Z,-1.81
2018-12-15T22:41:50.565Z,-1.76
2018-12-15T22:44:26.266Z,-1.81
2018-12-15T22:49:48.307Z,-1.75
2018-12-15T22:52:24.031Z,-1.62
2018-12-15T22:54:59.705Z,-1.69
2018-12-15T22:57:35.320Z,-1.79
2018-12-15T23:00:13.696Z,-1.88
2018-12-15T23:02:49.580Z,-1.84
2018-12-15T23:05:25.879Z,-1.85
2018-12-15T23:08:01.799Z,-1.79
2018-12-15T23:10:37.920Z,-1.87
2018-12-15T23:13:13.676Z,-1.86
2018-12-15T23:15:49.309Z,-1.85
2018-12-15T23:18:25.464Z,-1.80
2018-12-15T23:21:01.132Z,-1.83
2018-12-15T23:23:36.895Z,-1.71
2018-12-15T23:26:12.892Z,-1.69
2018-12-15T23:28:48.633Z,-1.61
2018-12-15T23:31:24.348Z,-1.55
2018-12-15T23:34:00.136Z,-1.52
2018-12-15T23:36:35.839Z,-1.55
2018-12-15T23:39:11.975Z,-1.57
2018-12-15T23:41:48.055Z,-1.54
2018-12-15T23:44:23.820Z,-1.56
2018-12-15T23:46:59.494Z,-1.57
2018-12-15T23:49:36.117Z,-1.49
2018-12-15T23:52:11.884Z,-1.42
2018-12-15T23:54:47.849Z,-1.40
2018-12-15T23:57:24.200Z,-1.29
2018-12-15T23:59:59.956Z,-1.28
